sensor_id;sensor_type;location;lat;lon;timestamp;P1;durP1;ratioP1;P2;durP2;ratioP2
36715;SDS011;22699;51.034;3.730;2023-03-01T00:02:25;8.15;;;5.30;;
36715;SDS011;22699;51.034;3.730;2023-03-01T00:04:50;6.72;;;5.10;;
36715;SDS011;22699;51.034;3.730;2023-03-01T00:07:16;7.10;;;4.90;;
36715;SDS011;22699;51.034;3.730;2023-03-01T00:09:43;6.63;;;5.40;;
36715;SDS011;22699;51.034;3.730;2023-03-01T00:12:11;6.78;;;5.57;;
36715;SDS011;22699;51.034;3.730;2023-03-01T00:14:36;6.97;;;4.43;;
36715;SDS011;22699;51.034;3.730;2023-03-01T00:17:02;7.03;;;5.50;;
36715;SDS011;22699;51.034;3.730;2023-03-01T00:19:28;5.97;;;5.00;;
36715;SDS011;22699;51.034;3.730;2023-03-01T00:21:53;5.90;;;5.05;;
36715;SDS011;22699;51.034;3.730;2023-03-01T00:24:19;7.18;;;5.50;;
36715;SDS011;22699;51.034;3.730;2023-03-01T00:26:45;6.13;;;5.07;;
36715;SDS011;22699;51.034;3.730;2023-03-01T00:29:11;9.90;;;6.10;;
36715;SDS011;22699;51.034;3.730;2023-03-01T00:31:38;6.38;;;5.40;;
36715;SDS011;22699;51.034;3.730;2023-03-01T00:34:04;8.10;;;5.70;;
36715;SDS011;22699;51.034;3.730;2023-03-01T00:36:32;8.35;;;5.50;;
36715;SDS011;22699;51.034;3.730;2023-03-01T00:39:00;7.22;;;5.60;;
36715;SDS011;22699;51.034;3.730;2023-03-01T00:41:27;7.30;;;5.97;;
36715;SDS011;22699;51.034;3.730;2023-03-01T00:43:56;7.10;;;5.80;;
36715;SDS011;22699;51.034;3.730;2023-03-01T00:46:23;7.47;;;5.78;;
36715;SDS011;22699;51.034;3.730;2023-03-01T00:48:51;6.88;;;5.80;;
36715;SDS011;22699;51.034;3.730;2023-03-01T00:51:18;6.68;;;5.75;;
36715;SDS011;22699;51.034;3.730;2023-03-01T00:53:46;7.68;;;6.03;;
36715;SDS011;22699;51.034;3.730;2023-03-01T00:56:14;7.35;;;5.82;;
36715;SDS011;22699;51.034;3.730;2023-03-01T00:58:40;8.40;;;6.63;;
36715;SDS011;22699;51.034;3.730;2023-03-01T01:01:12;7.10;;;5.82;;
36715;SDS011;22699;51.034;3.730;2023-03-01T01:03:47;10.02;;;6.72;;
36715;SDS011;22699;51.034;3.730;2023-03-01T01:06:19;8.20;;;6.82;;
36715;SDS011;22699;51.034;3.730;2023-03-01T01:08:49;8.15;;;6.45;;
36715;SDS011;22699;51.034;3.730;2023-03-01T01:11:17;8.50;;;6.07;;
36715;SDS011;22699;51.034;3.730;2023-03-01T01:13:44;8.70;;;6.75;;
36715;SDS011;22699;51.034;3.730;2023-03-01T01:16:11;7.70;;;6.30;;
36715;SDS011;22699;51.034;3.730;2023-03-01T01:18:37;9.52;;;6.32;;
36715;SDS011;22699;51.034;3.730;2023-03-01T01:21:10;7.75;;;6.53;;
36715;SDS011;22699;51.034;3.730;2023-03-01T01:23:39;7.60;;;6.80;;
36715;SDS011;22699;51.034;3.730;2023-03-01T01:26:07;10.02;;;7.07;;
36715;SDS011;22699;51.034;3.730;2023-03-01T01:28:36;10.10;;;7.40;;
36715;SDS011;22699;51.034;3.730;2023-03-01T01:31:03;10.50;;;7.57;;
36715;SDS011;22699;51.034;3.730;2023-03-01T01:33:35;8.48;;;6.85;;
36715;SDS011;22699;51.034;3.730;2023-03-01T01:36:02;9.43;;;7.10;;
36715;SDS011;22699;51.034;3.730;2023-03-01T01:38:29;9.27;;;7.25;;
36715;SDS011;22699;51.034;3.730;2023-03-01T01:40:58;9.25;;;7.30;;
36715;SDS011;22699;51.034;3.730;2023-03-01T01:43:30;10.23;;;7.55;;
36715;SDS011;22699;51.034;3.730;2023-03-01T01:46:04;10.38;;;7.85;;
36715;SDS011;22699;51.034;3.730;2023-03-01T01:49:04;8.88;;;7.57;;
36715;SDS011;22699;51.034;3.730;2023-03-01T01:51:38;8.23;;;7.43;;
36715;SDS011;22699;51.034;3.730;2023-03-01T01:54:22;10.95;;;8.85;;
36715;SDS011;22699;51.034;3.730;2023-03-01T01:56:55;9.48;;;8.23;;
36715;SDS011;22699;51.034;3.730;2023-03-01T01:59:28;8.77;;;7.38;;
36715;SDS011;22699;51.034;3.730;2023-03-01T02:01:56;9.80;;;8.38;;
36715;SDS011;22699;51.034;3.730;2023-03-01T02:04:24;11.20;;;8.73;;
36715;SDS011;22699;51.034;3.730;2023-03-01T02:07:01;10.45;;;8.70;;
36715;SDS011;22699;51.034;3.730;2023-03-01T02:09:33;9.02;;;7.32;;
36715;SDS011;22699;51.034;3.730;2023-03-01T02:12:01;10.82;;;8.88;;
36715;SDS011;22699;51.034;3.730;2023-03-01T02:14:31;10.00;;;8.88;;
36715;SDS011;22699;51.034;3.730;2023-03-01T02:16:56;10.43;;;8.63;;
36715;SDS011;22699;51.034;3.730;2023-03-01T02:22:28;12.10;;;9.93;;
36715;SDS011;22699;51.034;3.730;2023-03-01T02:25:04;11.23;;;8.98;;
36715;SDS011;22699;51.034;3.730;2023-03-01T02:30:37;11.75;;;9.40;;
36715;SDS011;22699;51.034;3.730;2023-03-01T02:33:23;10.10;;;8.88;;
36715;SDS011;22699;51.034;3.730;2023-03-01T02:35:50;12.77;;;8.95;;
36715;SDS011;22699;51.034;3.730;2023-03-01T02:38:18;11.32;;;8.48;;
36715;SDS011;22699;51.034;3.730;2023-03-01T02:40:46;13.02;;;9.18;;
36715;SDS011;22699;51.034;3.730;2023-03-01T02:43:14;14.65;;;10.57;;
36715;SDS011;22699;51.034;3.730;2023-03-01T02:45:48;14.50;;;10.25;;
36715;SDS011;22699;51.034;3.730;2023-03-01T02:48:16;12.65;;;10.38;;
36715;SDS011;22699;51.034;3.730;2023-03-01T02:50:54;14.40;;;11.27;;
36715;SDS011;22699;51.034;3.730;2023-03-01T02:53:39;14.50;;;11.45;;
36715;SDS011;22699;51.034;3.730;2023-03-01T02:56:15;13.88;;;11.30;;
36715;SDS011;22699;51.034;3.730;2023-03-01T02:58:41;15.57;;;11.55;;
36715;SDS011;22699;51.034;3.730;2023-03-01T03:01:17;14.68;;;12.05;;
36715;SDS011;22699;51.034;3.730;2023-03-01T03:03:44;13.27;;;11.02;;
36715;SDS011;22699;51.034;3.730;2023-03-01T03:06:10;16.63;;;12.40;;
36715;SDS011;22699;51.034;3.730;2023-03-01T03:08:36;14.48;;;11.88;;
36715;SDS011;22699;51.034;3.730;2023-03-01T03:11:02;15.13;;;12.57;;
36715;SDS011;22699;51.034;3.730;2023-03-01T03:13:28;16.63;;;12.48;;
36715;SDS011;22699;51.034;3.730;2023-03-01T03:15:55;16.08;;;12.65;;
36715;SDS011;22699;51.034;3.730;2023-03-01T03:18:21;13.95;;;12.23;;
36715;SDS011;22699;51.034;3.730;2023-03-01T03:20:50;16.17;;;12.53;;
36715;SDS011;22699;51.034;3.730;2023-03-01T03:23:17;15.98;;;13.23;;
36715;SDS011;22699;51.034;3.730;2023-03-01T03:25:44;17.05;;;13.57;;
36715;SDS011;22699;51.034;3.730;2023-03-01T03:28:12;17.52;;;13.63;;
36715;SDS011;22699;51.034;3.730;2023-03-01T03:30:38;19.92;;;14.40;;
36715;SDS011;22699;51.034;3.730;2023-03-01T03:33:06;16.60;;;12.90;;
36715;SDS011;22699;51.034;3.730;2023-03-01T03:35:34;20.48;;;14.25;;
36715;SDS011;22699;51.034;3.730;2023-03-01T03:38:06;20.42;;;14.38;;
36715;SDS011;22699;51.034;3.730;2023-03-01T03:40:42;20.35;;;14.85;;
36715;SDS011;22699;51.034;3.730;2023-03-01T03:43:18;16.50;;;13.02;;
36715;SDS011;22699;51.034;3.730;2023-03-01T03:45:46;18.30;;;13.70;;
36715;SDS011;22699;51.034;3.730;2023-03-01T03:48:14;17.30;;;13.90;;
36715;SDS011;22699;51.034;3.730;2023-03-01T03:50:40;19.50;;;14.15;;
36715;SDS011;22699;51.034;3.730;2023-03-01T03:53:07;18.42;;;14.27;;
36715;SDS011;22699;51.034;3.730;2023-03-01T03:55:35;18.38;;;14.25;;
36715;SDS011;22699;51.034;3.730;2023-03-01T03:58:04;17.40;;;13.45;;
36715;SDS011;22699;51.034;3.730;2023-03-01T04:00:32;18.48;;;13.18;;
36715;SDS011;22699;51.034;3.730;2023-03-01T04:03:02;17.63;;;13.32;;
36715;SDS011;22699;51.034;3.730;2023-03-01T04:05:28;17.17;;;12.88;;
36715;SDS011;22699;51.034;3.730;2023-03-01T04:07:54;19.73;;;13.30;;
36715;SDS011;22699;51.034;3.730;2023-03-01T04:10:35;18.70;;;13.38;;
36715;SDS011;22699;51.034;3.730;2023-03-01T04:13:07;18.38;;;13.65;;
36715;SDS011;22699;51.034;3.730;2023-03-01T04:15:35;20.90;;;14.00;;
36715;SDS011;22699;51.034;3.730;2023-03-01T04:18:01;17.70;;;12.40;;
36715;SDS011;22699;51.034;3.730;2023-03-01T04:20:29;21.52;;;13.45;;
36715;SDS011;22699;51.034;3.730;2023-03-01T04:25:24;16.48;;;12.90;;
36715;SDS011;22699;51.034;3.730;2023-03-01T04:27:49;21.60;;;13.32;;
36715;SDS011;22699;51.034;3.730;2023-03-01T04:30:16;17.73;;;13.40;;
36715;SDS011;22699;51.034;3.730;2023-03-01T04:32:42;16.08;;;12.63;;
36715;SDS011;22699;51.034;3.730;2023-03-01T04:35:10;17.10;;;12.77;;
36715;SDS011;22699;51.034;3.730;2023-03-01T04:37:37;17.95;;;13.25;;
36715;SDS011;22699;51.034;3.730;2023-03-01T04:40:03;20.52;;;15.18;;
36715;SDS011;22699;51.034;3.730;2023-03-01T04:42:38;17.52;;;13.00;;
36715;SDS011;22699;51.034;3.730;2023-03-01T04:45:04;20.45;;;13.38;;
36715;SDS011;22699;51.034;3.730;2023-03-01T04:47:40;17.23;;;12.40;;
36715;SDS011;22699;51.034;3.730;2023-03-01T04:50:10;13.48;;;10.82;;
36715;SDS011;22699;51.034;3.730;2023-03-01T04:52:37;17.88;;;13.02;;
36715;SDS011;22699;51.034;3.730;2023-03-01T04:55:03;19.10;;;13.65;;
36715;SDS011;22699;51.034;3.730;2023-03-01T04:57:30;17.92;;;12.85;;
36715;SDS011;22699;51.034;3.730;2023-03-01T04:59:56;20.42;;;13.88;;
36715;SDS011;22699;51.034;3.730;2023-03-01T05:02:22;25.10;;;13.07;;
36715;SDS011;22699;51.034;3.730;2023-03-01T05:04:48;17.15;;;12.80;;
36715;SDS011;22699;51.034;3.730;2023-03-01T05:07:15;18.85;;;13.35;;
36715;SDS011;22699;51.034;3.730;2023-03-01T05:09:47;17.25;;;13.27;;
36715;SDS011;22699;51.034;3.730;2023-03-01T05:12:13;16.67;;;12.18;;
36715;SDS011;22699;51.034;3.730;2023-03-01T05:14:40;15.63;;;12.57;;
36715;SDS011;22699;51.034;3.730;2023-03-01T05:17:06;18.92;;;13.63;;
36715;SDS011;22699;51.034;3.730;2023-03-01T05:19:33;18.55;;;12.88;;
36715;SDS011;22699;51.034;3.730;2023-03-01T05:21:59;17.23;;;11.88;;
36715;SDS011;22699;51.034;3.730;2023-03-01T05:24:32;13.23;;;10.00;;
36715;SDS011;22699;51.034;3.730;2023-03-01T05:26:58;18.58;;;13.15;;
36715;SDS011;22699;51.034;3.730;2023-03-01T05:29:25;18.50;;;13.30;;
36715;SDS011;22699;51.034;3.730;2023-03-01T05:31:56;21.45;;;13.93;;
36715;SDS011;22699;51.034;3.730;2023-03-01T05:34:27;16.45;;;12.00;;
36715;SDS011;22699;51.034;3.730;2023-03-01T05:36:55;17.15;;;12.57;;
36715;SDS011;22699;51.034;3.730;2023-03-01T05:39:21;16.85;;;12.63;;
36715;SDS011;22699;51.034;3.730;2023-03-01T05:41:51;17.15;;;13.18;;
36715;SDS011;22699;51.034;3.730;2023-03-01T05:44:18;13.40;;;10.25;;
36715;SDS011;22699;51.034;3.730;2023-03-01T05:46:44;20.30;;;12.82;;
36715;SDS011;22699;51.034;3.730;2023-03-01T05:49:14;12.60;;;10.05;;
36715;SDS011;22699;51.034;3.730;2023-03-01T05:51:40;21.38;;;12.95;;
36715;SDS011;22699;51.034;3.730;2023-03-01T05:54:07;18.77;;;12.90;;
36715;SDS011;22699;51.034;3.730;2023-03-01T05:56:35;18.08;;;12.35;;
36715;SDS011;22699;51.034;3.730;2023-03-01T05:59:01;16.50;;;12.75;;
36715;SDS011;22699;51.034;3.730;2023-03-01T06:01:28;21.83;;;12.85;;
36715;SDS011;22699;51.034;3.730;2023-03-01T06:03:54;20.48;;;13.10;;
36715;SDS011;22699;51.034;3.730;2023-03-01T06:06:23;19.40;;;13.38;;
36715;SDS011;22699;51.034;3.730;2023-03-01T06:08:49;19.17;;;12.20;;
36715;SDS011;22699;51.034;3.730;2023-03-01T06:11:15;17.38;;;13.07;;
36715;SDS011;22699;51.034;3.730;2023-03-01T06:13:41;20.20;;;13.85;;
36715;SDS011;22699;51.034;3.730;2023-03-01T06:16:08;21.10;;;13.82;;
36715;SDS011;22699;51.034;3.730;2023-03-01T06:18:34;16.52;;;13.07;;
36715;SDS011;22699;51.034;3.730;2023-03-01T06:21:00;21.35;;;13.23;;
36715;SDS011;22699;51.034;3.730;2023-03-01T06:23:26;20.40;;;15.25;;
36715;SDS011;22699;51.034;3.730;2023-03-01T06:25:51;20.42;;;13.48;;
36715;SDS011;22699;51.034;3.730;2023-03-01T06:28:17;20.50;;;12.80;;
36715;SDS011;22699;51.034;3.730;2023-03-01T06:30:43;18.83;;;12.68;;
36715;SDS011;22699;51.034;3.730;2023-03-01T06:33:08;17.20;;;11.85;;
36715;SDS011;22699;51.034;3.730;2023-03-01T06:35:34;19.08;;;13.27;;
36715;SDS011;22699;51.034;3.730;2023-03-01T06:38:01;19.13;;;12.48;;
36715;SDS011;22699;51.034;3.730;2023-03-01T06:40:31;16.67;;;11.75;;
36715;SDS011;22699;51.034;3.730;2023-03-01T06:42:57;19.67;;;12.65;;
36715;SDS011;22699;51.034;3.730;2023-03-01T06:45:25;18.70;;;12.75;;
36715;SDS011;22699;51.034;3.730;2023-03-01T06:47:52;19.20;;;12.93;;
36715;SDS011;22699;51.034;3.730;2023-03-01T06:50:25;15.55;;;11.25;;
36715;SDS011;22699;51.034;3.730;2023-03-01T06:52:55;15.35;;;12.15;;
36715;SDS011;22699;51.034;3.730;2023-03-01T06:55:22;20.42;;;11.35;;
36715;SDS011;22699;51.034;3.730;2023-03-01T06:57:58;13.32;;;9.13;;
36715;SDS011;22699;51.034;3.730;2023-03-01T07:00:27;16.08;;;10.88;;
36715;SDS011;22699;51.034;3.730;2023-03-01T07:02:54;17.13;;;11.85;;
36715;SDS011;22699;51.034;3.730;2023-03-01T07:05:22;15.00;;;11.55;;
36715;SDS011;22699;51.034;3.730;2023-03-01T07:07:49;17.55;;;10.10;;
36715;SDS011;22699;51.034;3.730;2023-03-01T07:10:14;15.82;;;10.93;;
36715;SDS011;22699;51.034;3.730;2023-03-01T07:12:40;14.32;;;10.93;;
36715;SDS011;22699;51.034;3.730;2023-03-01T07:15:07;19.70;;;10.75;;
36715;SDS011;22699;51.034;3.730;2023-03-01T07:17:34;13.10;;;9.65;;
36715;SDS011;22699;51.034;3.730;2023-03-01T07:20:00;19.08;;;10.43;;
36715;SDS011;22699;51.034;3.730;2023-03-01T07:22:25;14.65;;;9.80;;
36715;SDS011;22699;51.034;3.730;2023-03-01T07:24:51;13.65;;;9.63;;
36715;SDS011;22699;51.034;3.730;2023-03-01T07:27:17;12.88;;;9.27;;
36715;SDS011;22699;51.034;3.730;2023-03-01T07:29:43;13.75;;;9.30;;
36715;SDS011;22699;51.034;3.730;2023-03-01T07:32:09;14.68;;;10.60;;
36715;SDS011;22699;51.034;3.730;2023-03-01T07:34:38;16.30;;;9.77;;
36715;SDS011;22699;51.034;3.730;2023-03-01T07:37:04;13.23;;;9.60;;
36715;SDS011;22699;51.034;3.730;2023-03-01T07:39:33;16.58;;;10.65;;
36715;SDS011;22699;51.034;3.730;2023-03-01T07:41:58;16.17;;;9.02;;
36715;SDS011;22699;51.034;3.730;2023-03-01T07:44:24;15.55;;;9.25;;
36715;SDS011;22699;51.034;3.730;2023-03-01T07:46:50;12.57;;;9.43;;
36715;SDS011;22699;51.034;3.730;2023-03-01T07:49:21;12.45;;;9.25;;
36715;SDS011;22699;51.034;3.730;2023-03-01T07:51:47;11.07;;;8.65;;
36715;SDS011;22699;51.034;3.730;2023-03-01T07:54:12;15.10;;;9.75;;
36715;SDS011;22699;51.034;3.730;2023-03-01T07:56:38;13.75;;;9.07;;
36715;SDS011;22699;51.034;3.730;2023-03-01T07:59:05;14.70;;;9.70;;
36715;SDS011;22699;51.034;3.730;2023-03-01T08:01:31;15.05;;;9.10;;
36715;SDS011;22699;51.034;3.730;2023-03-01T08:03:56;11.88;;;8.95;;
36715;SDS011;22699;51.034;3.730;2023-03-01T08:06:22;15.02;;;9.85;;
36715;SDS011;22699;51.034;3.730;2023-03-01T08:08:48;13.95;;;9.52;;
36715;SDS011;22699;51.034;3.730;2023-03-01T08:11:14;16.27;;;8.88;;
36715;SDS011;22699;51.034;3.730;2023-03-01T08:13:39;10.80;;;8.38;;
36715;SDS011;22699;51.034;3.730;2023-03-01T08:16:07;11.80;;;7.32;;
36715;SDS011;22699;51.034;3.730;2023-03-01T08:18:34;11.93;;;8.05;;
36715;SDS011;22699;51.034;3.730;2023-03-01T08:21:03;9.45;;;8.00;;
36715;SDS011;22699;51.034;3.730;2023-03-01T08:23:31;12.48;;;7.53;;
36715;SDS011;22699;51.034;3.730;2023-03-01T08:26:04;9.02;;;7.35;;
36715;SDS011;22699;51.034;3.730;2023-03-01T08:28:32;16.67;;;7.93;;
36715;SDS011;22699;51.034;3.730;2023-03-01T08:30:59;11.88;;;7.45;;
36715;SDS011;22699;51.034;3.730;2023-03-01T08:33:25;12.50;;;7.07;;
36715;SDS011;22699;51.034;3.730;2023-03-01T08:35:51;8.23;;;6.20;;
36715;SDS011;22699;51.034;3.730;2023-03-01T08:38:17;14.05;;;7.03;;
36715;SDS011;22699;51.034;3.730;2023-03-01T08:40:43;12.82;;;7.50;;
36715;SDS011;22699;51.034;3.730;2023-03-01T08:43:09;9.35;;;6.68;;
36715;SDS011;22699;51.034;3.730;2023-03-01T08:45:36;8.23;;;7.05;;
36715;SDS011;22699;51.034;3.730;2023-03-01T08:48:01;10.60;;;6.45;;
36715;SDS011;22699;51.034;3.730;2023-03-01T08:50:28;10.23;;;7.07;;
36715;SDS011;22699;51.034;3.730;2023-03-01T08:52:53;15.63;;;7.57;;
36715;SDS011;22699;51.034;3.730;2023-03-01T08:55:19;8.93;;;6.43;;
36715;SDS011;22699;51.034;3.730;2023-03-01T08:57:44;12.27;;;6.82;;
36715;SDS011;22699;51.034;3.730;2023-03-01T09:00:11;9.95;;;6.93;;
36715;SDS011;22699;51.034;3.730;2023-03-01T09:02:40;7.35;;;6.60;;
36715;SDS011;22699;51.034;3.730;2023-03-01T09:05:08;11.88;;;6.80;;
36715;SDS011;22699;51.034;3.730;2023-03-01T09:07:35;10.27;;;7.18;;
36715;SDS011;22699;51.034;3.730;2023-03-01T09:10:00;9.73;;;6.00;;
36715;SDS011;22699;51.034;3.730;2023-03-01T09:12:28;11.27;;;6.50;;
36715;SDS011;22699;51.034;3.730;2023-03-01T09:14:55;7.63;;;5.80;;
36715;SDS011;22699;51.034;3.730;2023-03-01T09:17:20;10.00;;;6.35;;
36715;SDS011;22699;51.034;3.730;2023-03-01T09:19:46;10.45;;;6.63;;
36715;SDS011;22699;51.034;3.730;2023-03-01T09:22:13;10.63;;;6.75;;
36715;SDS011;22699;51.034;3.730;2023-03-01T09:24:40;9.43;;;7.43;;
36715;SDS011;22699;51.034;3.730;2023-03-01T09:27:06;9.45;;;7.40;;
36715;SDS011;22699;51.034;3.730;2023-03-01T09:29:35;8.70;;;6.38;;
36715;SDS011;22699;51.034;3.730;2023-03-01T09:32:01;7.68;;;6.30;;
36715;SDS011;22699;51.034;3.730;2023-03-01T09:34:27;14.07;;;6.75;;
36715;SDS011;22699;51.034;3.730;2023-03-01T09:36:53;9.18;;;6.78;;
36715;SDS011;22699;51.034;3.730;2023-03-01T09:39:19;9.77;;;7.10;;
36715;SDS011;22699;51.034;3.730;2023-03-01T09:47:43;10.90;;;6.95;;
36715;SDS011;22699;51.034;3.730;2023-03-01T09:50:20;8.57;;;6.00;;
36715;SDS011;22699;51.034;3.730;2023-03-01T09:53:00;7.97;;;6.60;;
36715;SDS011;22699;51.034;3.730;2023-03-01T10:01:13;10.82;;;7.13;;
36715;SDS011;22699;51.034;3.730;2023-03-01T10:04:05;13.55;;;7.60;;
36715;SDS011;22699;51.034;3.730;2023-03-01T10:06:41;11.35;;;7.00;;
36715;SDS011;22699;51.034;3.730;2023-03-01T10:09:13;10.35;;;7.00;;
36715;SDS011;22699;51.034;3.730;2023-03-01T10:11:48;8.70;;;6.72;;
36715;SDS011;22699;51.034;3.730;2023-03-01T10:16:57;10.60;;;6.65;;
36715;SDS011;22699;51.034;3.730;2023-03-01T10:19:36;11.05;;;7.10;;
36715;SDS011;22699;51.034;3.730;2023-03-01T10:22:09;9.25;;;6.80;;
36715;SDS011;22699;51.034;3.730;2023-03-01T10:24:46;9.73;;;6.72;;
36715;SDS011;22699;51.034;3.730;2023-03-01T10:32:31;12.98;;;6.75;;
36715;SDS011;22699;51.034;3.730;2023-03-01T10:34:58;10.75;;;6.45;;
36715;SDS011;22699;51.034;3.730;2023-03-01T10:37:23;12.73;;;6.78;;
36715;SDS011;22699;51.034;3.730;2023-03-01T10:39:56;9.55;;;6.90;;
36715;SDS011;22699;51.034;3.730;2023-03-01T10:42:34;9.95;;;6.63;;
36715;SDS011;22699;51.034;3.730;2023-03-01T10:51:17;9.50;;;6.30;;
36715;SDS011;22699;51.034;3.730;2023-03-01T10:53:43;9.77;;;6.65;;
36715;SDS011;22699;51.034;3.730;2023-03-01T10:56:14;10.00;;;6.15;;
36715;SDS011;22699;51.034;3.730;2023-03-01T10:59:00;11.95;;;7.55;;
36715;SDS011;22699;51.034;3.730;2023-03-01T11:01:29;8.48;;;6.50;;
36715;SDS011;22699;51.034;3.730;2023-03-01T11:06:34;7.30;;;6.47;;
36715;SDS011;22699;51.034;3.730;2023-03-01T11:09:18;11.85;;;6.63;;
36715;SDS011;22699;51.034;3.730;2023-03-01T11:11:52;9.25;;;7.00;;
36715;SDS011;22699;51.034;3.730;2023-03-01T11:14:22;12.35;;;7.55;;
36715;SDS011;22699;51.034;3.730;2023-03-01T11:19:31;9.77;;;7.10;;
36715;SDS011;22699;51.034;3.730;2023-03-01T11:22:07;12.30;;;5.90;;
36715;SDS011;22699;51.034;3.730;2023-03-01T11:29:52;12.07;;;7.35;;
36715;SDS011;22699;51.034;3.730;2023-03-01T11:32:26;10.70;;;6.07;;
36715;SDS011;22699;51.034;3.730;2023-03-01T11:34:57;22.90;;;12.95;;
36715;SDS011;22699;51.034;3.730;2023-03-01T11:40:39;10.00;;;6.53;;
36715;SDS011;22699;51.034;3.730;2023-03-01T11:43:36;9.90;;;5.80;;
36715;SDS011;22699;51.034;3.730;2023-03-01T11:46:31;12.23;;;6.50;;
36715;SDS011;22699;51.034;3.730;2023-03-01T11:51:38;7.18;;;5.30;;
36715;SDS011;22699;51.034;3.730;2023-03-01T11:54:29;9.63;;;5.97;;
36715;SDS011;22699;51.034;3.730;2023-03-01T12:08:25;8.93;;;6.15;;
36715;SDS011;22699;51.034;3.730;2023-03-01T12:11:03;8.55;;;5.15;;
36715;SDS011;22699;51.034;3.730;2023-03-01T12:16:44;9.05;;;5.07;;
36715;SDS011;22699;51.034;3.730;2023-03-01T12:22:32;7.95;;;5.43;;
36715;SDS011;22699;51.034;3.730;2023-03-01T12:25:21;8.60;;;5.32;;
36715;SDS011;22699;51.034;3.730;2023-03-01T12:28:12;6.25;;;5.20;;
36715;SDS011;22699;51.034;3.730;2023-03-01T12:33:45;8.27;;;5.45;;
36715;SDS011;22699;51.034;3.730;2023-03-01T12:51:13;10.25;;;5.30;;
36715;SDS011;22699;51.034;3.730;2023-03-01T12:53:45;8.32;;;5.32;;
36715;SDS011;22699;51.034;3.730;2023-03-01T12:56:19;6.43;;;4.88;;
36715;SDS011;22699;51.034;3.730;2023-03-01T12:59:11;9.60;;;4.85;;
36715;SDS011;22699;51.034;3.730;2023-03-01T13:01:57;7.13;;;4.82;;
36715;SDS011;22699;51.034;3.730;2023-03-01T13:07:30;9.52;;;4.55;;
36715;SDS011;22699;51.034;3.730;2023-03-01T13:13:12;7.32;;;4.32;;
36715;SDS011;22699;51.034;3.730;2023-03-01T13:15:45;9.70;;;5.15;;
36715;SDS011;22699;51.034;3.730;2023-03-01T13:20:51;5.93;;;4.95;;
36715;SDS011;22699;51.034;3.730;2023-03-01T13:33:48;7.05;;;5.53;;
36715;SDS011;22699;51.034;3.730;2023-03-01T13:41:56;8.82;;;5.18;;
36715;SDS011;22699;51.034;3.730;2023-03-01T13:49:59;6.03;;;4.97;;
36715;SDS011;22699;51.034;3.730;2023-03-01T13:54:56;11.82;;;5.18;;
36715;SDS011;22699;51.034;3.730;2023-03-01T13:57:24;6.53;;;4.85;;
36715;SDS011;22699;51.034;3.730;2023-03-01T13:59:55;11.70;;;6.05;;
36715;SDS011;22699;51.034;3.730;2023-03-01T14:02:21;6.80;;;5.47;;
36715;SDS011;22699;51.034;3.730;2023-03-01T14:04:57;10.63;;;5.78;;
36715;SDS011;22699;51.034;3.730;2023-03-01T14:07:24;8.48;;;5.25;;
36715;SDS011;22699;51.034;3.730;2023-03-01T14:10:00;8.50;;;5.40;;
36715;SDS011;22699;51.034;3.730;2023-03-01T14:15:15;8.30;;;5.35;;
36715;SDS011;22699;51.034;3.730;2023-03-01T14:18:02;8.68;;;5.43;;
36715;SDS011;22699;51.034;3.730;2023-03-01T14:20:40;6.68;;;5.18;;
36715;SDS011;22699;51.034;3.730;2023-03-01T14:23:16;7.72;;;5.57;;
36715;SDS011;22699;51.034;3.730;2023-03-01T14:25:50;8.02;;;5.60;;
36715;SDS011;22699;51.034;3.730;2023-03-01T14:28:19;8.75;;;5.20;;
36715;SDS011;22699;51.034;3.730;2023-03-01T14:30:50;7.35;;;5.25;;
36715;SDS011;22699;51.034;3.730;2023-03-01T14:35:58;8.70;;;6.20;;
36715;SDS011;22699;51.034;3.730;2023-03-01T14:38:34;7.80;;;5.07;;
36715;SDS011;22699;51.034;3.730;2023-03-01T14:41:13;9.50;;;5.60;;
36715;SDS011;22699;51.034;3.730;2023-03-01T14:43:53;7.38;;;4.93;;
36715;SDS011;22699;51.034;3.730;2023-03-01T14:46:24;9.63;;;6.15;;
36715;SDS011;22699;51.034;3.730;2023-03-01T14:48:54;7.82;;;6.05;;
36715;SDS011;22699;51.034;3.730;2023-03-01T14:51:28;9.45;;;5.63;;
36715;SDS011;22699;51.034;3.730;2023-03-01T14:53:54;7.63;;;5.43;;
36715;SDS011;22699;51.034;3.730;2023-03-01T14:56:20;6.70;;;5.40;;
36715;SDS011;22699;51.034;3.730;2023-03-01T14:58:46;8.20;;;5.45;;
36715;SDS011;22699;51.034;3.730;2023-03-01T15:01:16;11.02;;;6.38;;
36715;SDS011;22699;51.034;3.730;2023-03-01T15:03:47;11.68;;;7.47;;
36715;SDS011;22699;51.034;3.730;2023-03-01T15:06:15;8.07;;;5.50;;
36715;SDS011;22699;51.034;3.730;2023-03-01T15:08:47;8.52;;;5.63;;
36715;SDS011;22699;51.034;3.730;2023-03-01T15:11:17;9.85;;;6.35;;
36715;SDS011;22699;51.034;3.730;2023-03-01T15:13:49;7.90;;;6.03;;
36715;SDS011;22699;51.034;3.730;2023-03-01T15:18:58;8.55;;;5.30;;
36715;SDS011;22699;51.034;3.730;2023-03-01T15:21:38;9.57;;;6.15;;
36715;SDS011;22699;51.034;3.730;2023-03-01T15:26:58;7.97;;;6.15;;
36715;SDS011;22699;51.034;3.730;2023-03-01T15:29:31;8.10;;;6.05;;
36715;SDS011;22699;51.034;3.730;2023-03-01T15:35:47;22.17;;;16.45;;
36715;SDS011;22699;51.034;3.730;2023-03-01T15:40:58;18.67;;;12.38;;
36715;SDS011;22699;51.034;3.730;2023-03-01T15:43:44;10.50;;;7.30;;
36715;SDS011;22699;51.034;3.730;2023-03-01T15:46:31;9.10;;;7.20;;
36715;SDS011;22699;51.034;3.730;2023-03-01T15:49:04;9.40;;;5.57;;
36715;SDS011;22699;51.034;3.730;2023-03-01T15:51:51;7.88;;;6.25;;
36715;SDS011;22699;51.034;3.730;2023-03-01T15:54:20;10.70;;;6.65;;
36715;SDS011;22699;51.034;3.730;2023-03-01T15:56:49;10.05;;;7.03;;
36715;SDS011;22699;51.034;3.730;2023-03-01T15:59:16;8.55;;;6.28;;
36715;SDS011;22699;51.034;3.730;2023-03-01T16:01:43;7.95;;;6.00;;
36715;SDS011;22699;51.034;3.730;2023-03-01T16:04:10;8.30;;;6.43;;
36715;SDS011;22699;51.034;3.730;2023-03-01T16:06:46;6.45;;;5.70;;
36715;SDS011;22699;51.034;3.730;2023-03-01T16:09:20;8.95;;;6.53;;
36715;SDS011;22699;51.034;3.730;2023-03-01T16:11:49;11.35;;;6.45;;
36715;SDS011;22699;51.034;3.730;2023-03-01T16:14:16;10.60;;;6.32;;
36715;SDS011;22699;51.034;3.730;2023-03-01T16:16:42;12.05;;;6.35;;
36715;SDS011;22699;51.034;3.730;2023-03-01T16:19:08;12.05;;;7.55;;
36715;SDS011;22699;51.034;3.730;2023-03-01T16:21:33;12.32;;;6.50;;
36715;SDS011;22699;51.034;3.730;2023-03-01T16:24:00;9.05;;;6.70;;
36715;SDS011;22699;51.034;3.730;2023-03-01T16:26:25;8.57;;;7.45;;
36715;SDS011;22699;51.034;3.730;2023-03-01T16:28:54;8.77;;;5.97;;
36715;SDS011;22699;51.034;3.730;2023-03-01T16:31:22;11.73;;;7.32;;
36715;SDS011;22699;51.034;3.730;2023-03-01T16:33:52;10.43;;;6.97;;
36715;SDS011;22699;51.034;3.730;2023-03-01T16:36:19;8.73;;;6.38;;
36715;SDS011;22699;51.034;3.730;2023-03-01T16:38:51;12.23;;;6.43;;
36715;SDS011;22699;51.034;3.730;2023-03-01T16:41:17;9.65;;;6.53;;
36715;SDS011;22699;51.034;3.730;2023-03-01T16:43:45;8.88;;;6.32;;
36715;SDS011;22699;51.034;3.730;2023-03-01T16:46:19;8.63;;;6.65;;
36715;SDS011;22699;51.034;3.730;2023-03-01T16:48:47;8.30;;;6.43;;
36715;SDS011;22699;51.034;3.730;2023-03-01T16:51:14;13.15;;;7.22;;
36715;SDS011;22699;51.034;3.730;2023-03-01T16:53:40;9.82;;;7.15;;
36715;SDS011;22699;51.034;3.730;2023-03-01T16:56:07;11.80;;;7.43;;
36715;SDS011;22699;51.034;3.730;2023-03-01T16:58:36;10.07;;;6.75;;
36715;SDS011;22699;51.034;3.730;2023-03-01T17:01:06;11.30;;;7.28;;
36715;SDS011;22699;51.034;3.730;2023-03-01T17:03:37;9.32;;;6.80;;
36715;SDS011;22699;51.034;3.730;2023-03-01T17:06:05;14.10;;;7.03;;
36715;SDS011;22699;51.034;3.730;2023-03-01T17:08:35;8.90;;;6.50;;